Time;durP1;ratioP1;P1;durP2;ratioP2;P2;SDS_P1;SDS_P2;PMS_P1;PMS_P2;Temp;Humidity;BMP_temperature;BMP_pressure;BME280_temperature;BME280_humidity;BME280_pressure;Samples;Min_cycle;Max_cycle;Signal;HPM_P1;HPM_P2
2023/01/28 00:02:23;;;;;;;17.38;14.82;;;7.10;99.90;;;7.21;69.84;102875.56;5076156;28;20123;-63
2023/01/28 00:04:52;;;;;;;18.30;16.07;;;7.00;99.90;;;7.19;69.83;102885.16;5076630;28;20466;-63
2023/01/28 00:07:20;;;;;;;18.30;15.60;;;7.00;99.90;;;7.15;70.18;102883.22;5075004;28;20157;-63
2023/01/28 00:09:48;;;;;;;18.33;15.55;;;7.00;99.90;;;7.20;70.02;102886.97;5076323;28;20053;-63
2023/01/28 00:12:17;;;;;;;17.67;15.70;;;7.10;99.90;;;7.13;69.97;102880.53;5075904;28;20044;-63
2023/01/28 00:14:46;;;;;;;19.52;16.98;;;7.00;99.90;;;7.18;69.89;102888.63;5076167;28;20046;-63
2023/01/28 00:17:15;;;;;;;17.63;15.68;;;7.00;99.90;;;7.18;69.73;102884.25;5075686;28;20048;-63
2023/01/28 00:19:45;;;;;;;18.83;16.70;;;7.00;99.90;;;7.16;69.52;102870.13;5075756;28;20052;-63
2023/01/28 00:22:14;;;;;;;19.45;16.98;;;7.00;99.90;;;7.17;69.88;102876.28;5075813;28;20537;-63
2023/01/28 00:24:42;;;;;;;18.08;16.17;;;7.00;99.90;;;7.24;69.55;102863.44;5076202;28;20037;-63
2023/01/28 00:27:11;;;;;;;17.90;16.00;;;7.10;99.90;;;7.20;69.47;102874.66;5075929;28;20056;-63
2023/01/28 00:29:39;;;;;;;17.35;15.35;;;7.00;99.90;;;7.25;69.65;102874.88;5074475;28;20079;-63
2023/01/28 00:32:09;;;;;;;19.05;17.02;;;7.10;99.90;;;7.28;69.75;102861.81;5075794;28;20051;-63
2023/01/28 00:34:37;;;;;;;17.48;15.63;;;7.10;99.90;;;7.32;69.77;102868.13;5074449;28;20036;-63
2023/01/28 00:37:09;;;;;;;19.33;16.77;;;7.10;99.90;;;7.22;69.70;102869.47;5074471;28;20397;-62
2023/01/28 00:39:37;;;;;;;19.73;17.30;;;7.10;99.90;;;7.35;69.41;102869.16;5075675;28;20048;-62
2023/01/28 00:42:06;;;;;;;19.60;15.88;;;7.20;99.90;;;7.36;69.71;102867.41;5074315;28;20514;-63
2023/01/28 00:44:35;;;;;;;18.35;16.08;;;7.10;99.90;;;7.29;69.65;102866.28;5075251;28;20044;-63
2023/01/28 00:47:03;;;;;;;19.95;16.75;;;7.10;99.90;;;7.34;69.67;102869.97;5075285;28;20127;-63
2023/01/28 00:49:31;;;;;;;18.52;16.02;;;7.20;99.90;;;7.26;69.54;102861.75;5075761;28;20144;-63
2023/01/28 00:52:00;;;;;;;19.88;16.80;;;7.10;99.90;;;7.36;69.78;102868.31;5074064;28;20047;-62
2023/01/28 00:54:31;;;;;;;21.13;17.48;;;7.10;99.90;;;7.24;70.14;102873.06;5075407;28;20044;-62
2023/01/28 00:57:00;;;;;;;21.10;17.67;;;7.10;99.90;;;7.28;69.52;102875.91;5074094;28;20090;-63
2023/01/28 00:59:28;;;;;;;19.75;17.35;;;7.10;99.90;;;7.24;70.01;102876.59;5075038;28;20040;-63
2023/01/28 01:02:10;;;;;;;20.05;16.30;;;7.10;99.90;;;7.30;69.67;102878.56;5075262;28;20123;-62
2023/01/28 01:04:40;;;;;;;20.73;17.67;;;7.10;99.90;;;7.23;70.11;102884.44;5075522;28;20067;-62
2023/01/28 01:07:08;;;;;;;19.63;17.50;;;7.10;99.90;;;7.24;69.79;102878.31;5074227;28;20071;-63
2023/01/28 01:09:38;;;;;;;21.55;17.75;;;7.10;99.90;;;7.23;70.01;102871.28;5075273;28;20052;-62
2023/01/28 01:12:07;;;;;;;18.60;16.60;;;7.10;99.90;;;7.29;69.90;102882.06;5073705;28;20048;-63
2023/01/28 01:14:36;;;;;;;18.65;16.65;;;7.10;99.90;;;6.82;69.75;102798.53;5075095;28;20075;-62
2023/01/28 01:17:04;;;;;;;18.80;16.80;;;7.10;99.90;;;7.28;69.45;102881.16;5074901;28;20052;-63
2023/01/28 01:19:32;;;;;;;19.10;17.10;;;7.10;99.90;;;7.26;69.26;102880.19;5073978;28;20064;-63
2023/01/28 01:22:01;;;;;;;18.60;16.35;;;7.10;99.90;;;7.26;68.94;102885.47;5074719;28;20487;-63
2023/01/28 01:24:32;;;;;;;18.42;16.40;;;7.10;99.90;;;7.28;68.84;102886.41;5073562;28;20052;-63
2023/01/28 01:27:04;;;;;;;20.08;17.02;;;7.10;99.90;;;7.25;69.26;102874.88;5073578;28;20061;-63
2023/01/28 01:29:33;;;;;;;20.40;17.63;;;7.10;99.90;;;7.30;68.56;102874.22;5074795;28;20114;-63
2023/01/28 01:32:01;;;;;;;20.55;17.70;;;7.10;99.90;;;7.26;68.84;102855.59;5074684;28;20401;-63
2023/01/28 01:34:29;;;;;;;21.55;19.25;;;7.20;99.90;;;7.27;68.95;102873.19;5073368;28;20048;-63
2023/01/28 01:36:58;;;;;;;20.88;18.67;;;7.10;99.90;;;7.30;68.70;102873.31;5073435;28;20040;-63
2023/01/28 01:39:26;;;;;;;20.42;18.27;;;7.10;99.90;;;7.26;68.65;102863.50;5074605;28;20047;-62
2023/01/28 01:41:54;;;;;;;19.98;17.33;;;7.10;99.90;;;7.22;68.66;102865.09;5074280;28;20071;-62
2023/01/28 01:44:59;;;;;;;21.77;18.80;;;7.10;99.90;;;7.12;68.90;102867.31;5073089;28;20048;-63
2023/01/28 01:47:35;;;;;;;21.90;17.90;;;6.90;99.90;;;7.16;68.80;102879.75;5073406;28;20147;-63
2023/01/28 01:50:08;;;;;;;19.92;17.75;;;7.00;99.90;;;7.13;68.62;102877.00;5073104;28;20048;-62
2023/01/28 01:52:36;;;;;;;19.92;17.05;;;7.00;99.90;;;7.03;69.29;102872.16;5074484;28;20040;-63
2023/01/28 01:55:12;;;;;;;20.20;18.05;;;6.90;99.90;;;7.07;69.34;102877.63;5074529;28;20482;-63
2023/01/28 01:57:43;;;;;;;19.58;17.48;;;6.90;99.90;;;7.01;69.51;102877.38;5072838;28;20143;-63
2023/01/28 02:00:13;;;;;;;18.52;16.48;;;6.90;99.90;;;6.94;69.78;102871.78;5072850;28;20041;-65
2023/01/28 02:02:44;;;;;;;;;;;6.80;99.90;;;6.98;69.75;102863.19;5073341;28;20072;-63
2023/01/28 02:05:17;;;;;;;17.83;16.02;;;6.80;99.90;;;7.02;69.78;102870.38;5073826;28;19927;-63
2023/01/28 02:07:47;;;;;;;16.95;15.25;;;6.90;99.90;;;6.99;69.87;102871.16;5072731;28;20608;-63
2023/01/28 02:10:18;;;;;;;17.75;15.85;;;6.80;99.90;;;6.97;70.32;102861.38;5072323;28;20052;-63
2023/01/28 02:12:53;;;;;;;17.88;16.05;;;6.80;99.90;;;7.00;70.02;102869.44;5072658;28;20390;-63
2023/01/28 02:15:28;;;;;;;17.67;15.88;;;6.80;99.90;;;6.99;70.28;102872.88;5073939;28;20090;-63
2023/01/28 02:17:57;;;;;;;18.13;15.57;;;6.80;99.90;;;6.96;70.27;102878.03;5073703;28;20064;-63
2023/01/28 02:20:37;;;;;;;18.17;16.10;;;6.80;99.90;;;6.91;70.03;102882.19;5073704;28;20048;-63
2023/01/28 02:23:31;;;;;;;17.37;15.60;;;6.70;99.90;;;6.83;70.15;102866.06;5073804;28;20087;-62
2023/01/28 02:26:23;;;;;;;17.85;15.85;;;6.80;99.90;;;7.00;70.03;102890.47;5072295;28;20776;-63
2023/01/28 02:28:59;;;;;;;17.38;15.25;;;6.80;99.90;;;6.98;69.72;102895.69;5089135;28;20139;-63
2023/01/28 02:31:34;;;;;;;17.52;15.73;;;6.80;99.90;;;6.94;69.83;102899.00;5072322;28;20080;-62
2023/01/28 02:34:14;;;;;;;17.92;15.82;;;6.80;99.90;;;6.93;69.99;102893.69;5072074;28;20409;-63
2023/01/28 02:36:48;;;;;;;18.75;16.52;;;6.80;99.90;;;6.82;70.14;102893.22;5072150;28;20045;-62
2023/01/28 02:39:21;;;;;;;18.08;16.17;;;6.70;99.90;;;6.94;70.02;102887.56;5072075;28;20479;-63
2023/01/28 02:41:56;;;;;;;18.48;16.35;;;6.70;99.90;;;6.88;69.58;102898.75;5072090;28;20579;-63
2023/01/28 02:44:26;;;;;;;17.65;15.45;;;6.70;99.90;;;6.87;69.38;102893.44;5072029;28;20056;-63
2023/01/28 02:49:46;;;;;;;17.42;15.63;;;6.70;99.90;;;6.59;69.59;102888.69;5073249;28;20033;-65
2023/01/28 02:55:32;;;;;;;17.38;15.38;;;6.50;99.90;;;6.76;69.68;102895.56;5073141;28;20379;-62
2023/01/28 02:58:10;;;;;;;16.63;14.93;;;6.60;99.90;;;6.75;69.65;102891.16;5072955;28;20098;-63
2023/01/28 03:00:47;;;;;;;16.15;14.55;;;6.60;99.90;;;6.83;69.78;102891.50;5073126;28;20087;-63
2023/01/28 03:03:22;;;;;;;16.52;14.82;;;6.60;99.90;;;6.77;69.52;102893.84;5073123;28;20076;-63
2023/01/28 03:06:04;;;;;;;16.10;14.40;;;6.60;99.90;;;6.78;69.58;102895.63;5071829;28;20083;-63
2023/01/28 03:36:49;;;;;;;14.43;11.73;;;6.60;99.90;;;6.55;68.45;102857.84;5071419;28;20060;-63
2023/01/28 03:39:40;;;;;;;13.13;11.90;;;6.60;99.90;;;6.79;68.07;102897.44;5088156;28;20409;-63
2023/01/28 03:42:13;;;;;;;12.30;11.10;;;6.70;99.90;;;6.84;68.10;102893.28;5071482;28;20052;-63
2023/01/28 03:45:14;;;;;;;12.38;11.18;;;6.70;99.90;;;6.78;68.02;102899.16;5060132;28;20060;-63
2023/01/28 03:47:46;;;;;;;12.05;10.85;;;6.60;99.90;;;6.78;67.98;102893.91;5071324;28;20048;-63
2023/01/28 03:50:17;;;;;;;13.48;10.80;;;6.60;99.90;;;6.73;67.92;102898.09;5071297;28;20398;-62
2023/01/28 03:53:10;;;;;;;13.40;11.23;;;6.60;99.90;;;6.63;68.00;102876.56;5071275;28;20055;-62
2023/01/28 03:55:52;;;;;;;14.05;12.68;;;6.60;99.90;;;6.72;67.53;102909.41;5071242;28;20090;-63
2023/01/28 03:58:22;;;;;;;;;;;6.60;99.90;;;6.73;67.54;102900.72;5071876;28;20060;-63
2023/01/28 04:00:51;;;;;;;;;;;6.70;99.90;;;6.75;67.85;102919.19;5071651;28;19970;-62
2023/01/28 04:03:21;;;;;;;13.90;12.00;;;6.70;99.90;;;6.68;67.85;102927.66;5071085;28;20027;-63
2023/01/28 04:06:04;;;;;;;12.80;11.50;;;6.60;99.90;;;6.74;67.79;102926.16;5070936;28;20049;-62
2023/01/28 04:08:51;;;;;;;12.82;11.63;;;6.60;99.90;;;6.76;67.89;102923.59;5070892;28;20110;-63
2023/01/28 04:11:43;;;;;;;12.40;11.13;;;6.60;99.90;;;6.72;68.42;102930.47;5061833;28;20096;-63
2023/01/28 04:14:16;;;;;;;12.32;11.23;;;6.60;99.90;;;6.77;68.13;102928.03;5071159;28;20045;-63
2023/01/28 04:16:58;;;;;;;13.70;11.77;;;6.60;99.90;;;6.74;68.52;102925.25;5071031;28;20080;-62
2023/01/28 04:19:27;;;;;;;13.10;11.70;;;6.60;99.90;;;6.73;68.51;102926.09;5071252;28;20399;-63
2023/01/28 04:21:58;;;;;;;13.00;11.70;;;6.50;99.90;;;6.76;68.19;102926.22;5071283;28;20474;-63
2023/01/28 04:24:26;;;;;;;12.70;11.38;;;6.60;99.90;;;6.69;67.85;102922.44;5070974;28;20048;-63
2023/01/28 04:26:55;;;;;;;13.18;11.75;;;6.60;99.90;;;6.51;67.92;102918.09;5070872;28;20051;-62
2023/01/28 04:29:25;;;;;;;13.95;10.80;;;6.50;99.90;;;5.92;69.78;102918.84;5070985;28;20095;-62
2023/01/28 04:31:58;;;;;;;14.13;11.90;;;5.90;99.90;;;6.22;69.70;102916.75;5070921;28;20072;-63
2023/01/28 04:34:37;;;;;;;12.55;10.85;;;6.00;99.90;;;6.08;70.27;102918.75;5070670;28;20080;-63
2023/01/28 04:37:30;;;;;;;13.20;11.95;;;5.90;99.90;;;4.94;70.60;102781.94;5043012;28;20482;-63
2023/01/28 04:40:14;;;;;;;12.73;11.48;;;5.60;99.90;;;5.95;71.00;102912.84;5070922;28;20485;-63
2023/01/28 04:42:58;;;;;;;12.23;11.00;;;5.70;99.90;;;5.83;70.55;102909.59;5074159;28;20056;-62
2023/01/28 04:45:44;;;;;;;12.70;11.40;;;5.80;99.90;;;5.17;71.95;102901.97;5075619;28;20070;-62
2023/01/28 04:48:42;;;;;;;13.60;12.20;;;5.20;99.90;;;5.43;72.24;102907.72;5065695;28;20057;-63
2023/01/28 04:51:29;;;;;;;13.10;11.80;;;5.30;99.90;;;5.58;71.69;102904.00;5075313;28;20051;-62
2023/01/28 04:54:22;;;;;;;13.93;12.52;;;5.40;99.90;;;5.47;71.49;102901.78;5066717;28;20501;-62
2023/01/28 04:56:50;;;;;;;15.43;13.07;;;5.40;99.90;;;5.26;71.68;102897.22;5074118;28;20045;-62
2023/01/28 04:59:19;;;;;;;13.03;11.60;;;5.20;99.90;;;4.93;73.25;102885.94;5073957;28;20045;-63
2023/01/28 05:01:48;;;;;;;13.03;11.67;;;4.90;99.90;;;3.91;73.58;102760.06;5074056;28;20052;-62
2023/01/28 05:04:17;;;;;;;14.27;12.87;;;4.50;99.90;;;4.44;74.91;102893.00;5074233;28;20047;-63
2023/01/28 05:06:45;;;;;;;13.23;11.93;;;4.30;99.90;;;4.74;75.02;102908.50;5073954;28;20406;-63
2023/01/28 05:09:19;;;;;;;13.03;11.60;;;4.40;99.90;;;5.06;74.10;102911.03;5073891;28;20064;-63
2023/01/28 05:11:50;;;;;;;13.63;12.17;;;4.70;99.90;;;5.35;73.50;102910.78;5073889;28;20398;-62
2023/01/28 05:14:19;;;;;;;13.00;11.80;;;5.10;99.90;;;5.52;73.12;102907.25;5074074;28;20446;-63
2023/01/28 05:17:04;;;;;;;13.27;11.97;;;5.30;99.90;;;5.74;72.31;102915.34;5073794;28;20045;-62
2023/01/28 05:19:33;;;;;;;12.50;11.15;;;5.50;99.90;;;5.79;71.69;102911.19;5074876;28;20056;-62
2023/01/28 05:22:02;;;;;;;12.57;11.37;;;5.60;99.90;;;5.73;71.08;102910.03;5073681;28;20037;-62
2023/01/28 05:24:57;;;;;;;12.93;11.63;;;5.60;99.90;;;5.50;71.51;102895.78;5065931;28;20052;-63
2023/01/28 05:27:27;;;;;;;13.80;12.43;;;5.40;99.90;;;5.43;71.29;102901.56;5073574;28;20048;-62
2023/01/28 05:29:55;;;;;;;12.98;11.68;;;5.40;99.90;;;5.28;72.33;102892.94;5073456;28;20238;-62
2023/01/28 05:32:23;;;;;;;13.00;11.80;;;5.10;99.90;;;5.40;71.91;102896.19;5073132;28;20044;-63
2023/01/28 05:34:52;;;;;;;13.10;11.77;;;5.20;99.90;;;5.59;71.18;102904.13;5074431;28;20512;-63
2023/01/28 05:37:20;;;;;;;12.77;11.37;;;5.30;99.90;;;5.52;71.13;102899.38;5074802;28;20063;-63
2023/01/28 05:39:52;;;;;;;12.30;11.17;;;5.30;99.90;;;5.37;71.43;102896.91;5073501;28;20135;-62
2023/01/28 05:42:21;;;;;;;13.20;11.87;;;5.10;99.90;;;5.57;71.34;102897.88;5074212;28;20508;-62
2023/01/28 05:44:55;;;;;;;13.20;11.87;;;5.30;99.90;;;5.79;71.50;102905.94;5073273;28;20056;-63
2023/01/28 05:47:41;;;;;;;11.60;10.60;;;5.50;99.90;;;5.64;70.66;102904.31;5073130;28;20036;-63
2023/01/28 05:50:24;;;;;;;13.30;10.65;;;5.50;99.90;;;5.69;70.45;102901.09;5074433;28;20040;-63
2023/01/28 05:53:12;;;;;;;12.88;11.50;;;5.50;99.90;;;5.56;70.62;102896.06;5072696;28;20048;-62
2023/01/28 05:55:44;;;;;;;14.73;11.47;;;5.50;99.90;;;5.64;70.91;102902.59;5073043;28;20094;-63
2023/01/28 05:58:12;;;;;;;13.10;11.80;;;5.50;99.90;;;5.55;70.68;102906.50;5072320;28;20165;-62
2023/01/28 06:00:42;;;;;;;12.73;11.53;;;5.50;99.90;;;5.41;70.75;102884.84;5073050;28;20040;-62
2023/01/28 06:03:10;;;;;;;13.75;12.32;;;5.40;99.90;;;5.27;71.59;102899.00;5073094;28;20059;-63
2023/01/28 06:05:39;;;;;;;13.87;12.60;;;5.20;99.90;;;5.57;71.68;102905.75;5072790;28;20052;-63
2023/01/28 06:08:08;;;;;;;12.77;11.47;;;5.30;99.90;;;5.21;71.82;102898.69;5072646;28;20044;-63
2023/01/28 06:10:37;;;;;;;13.20;11.60;;;5.10;99.90;;;5.03;71.54;102897.78;5072722;28;20390;-63
2023/01/28 06:13:05;;;;;;;13.77;11.67;;;4.90;99.90;;;5.26;71.83;102895.50;5072646;28;20577;-63
2023/01/28 06:15:57;;;;;;;15.45;11.65;;;5.10;99.90;;;5.09;72.09;102904.22;5072593;28;20072;-62
2023/01/28 06:18:36;;;;;;;11.97;10.77;;;4.90;99.90;;;5.28;72.01;102906.06;5072407;28;20049;-63
2023/01/28 06:21:05;;;;;;;12.83;11.50;;;5.00;99.90;;;5.18;71.60;102903.81;5072455;28;20151;-63
2023/01/28 06:23:34;;;;;;;12.13;10.93;;;5.00;99.90;;;4.90;72.38;102900.59;5073781;28;20066;-63
2023/01/28 06:26:07;;;;;;;13.10;11.10;;;4.70;99.90;;;4.87;72.58;102919.72;5072648;28;20045;-63
2023/01/28 06:28:37;;;;;;;15.70;12.00;;;4.60;99.90;;;4.95;72.90;102915.75;5072346;28;20057;-63
2023/01/28 06:31:07;;;;;;;13.55;11.82;;;4.70;99.90;;;5.04;72.65;102913.59;5073548;28;20569;-63
2023/01/28 06:33:35;;;;;;;12.13;11.02;;;4.80;99.90;;;5.13;72.30;102916.69;5073238;28;20051;-63
2023/01/28 06:36:05;;;;;;;13.13;11.33;;;4.80;99.90;;;5.10;72.52;102918.25;5073272;28;20091;-63
2023/01/28 06:38:34;;;;;;;13.50;11.23;;;4.90;99.90;;;5.11;72.23;102917.44;5073052;28;20047;-63
2023/01/28 06:41:02;;;;;;;12.57;11.27;;;4.80;99.90;;;5.00;72.85;102915.97;5073360;28;20041;-63
2023/01/28 06:43:30;;;;;;;13.77;11.77;;;4.70;99.90;;;4.87;73.52;102922.34;5073272;28;20036;-63
2023/01/28 06:45:59;;;;;;;13.40;11.30;;;4.70;99.90;;;4.80;73.31;102919.31;5073706;28;20059;-64
2023/01/28 06:48:29;;;;;;;13.53;12.23;;;4.60;99.90;;;4.78;73.48;102919.22;5073224;28;20410;-63
2023/01/28 06:50:57;;;;;;;19.17;17.20;;;4.50;99.90;;;4.65;73.78;102921.13;5072982;28;20041;-63
2023/01/28 06:53:26;;;;;;;19.20;17.10;;;4.40;99.90;;;4.59;74.22;102914.75;5072063;28;20055;-63
2023/01/28 06:55:54;;;;;;;13.43;12.03;;;4.30;99.90;;;4.56;74.02;102914.59;5072865;28;20048;-63
2023/01/28 06:58:22;;;;;;;16.93;12.50;;;4.30;99.90;;;4.72;74.21;102910.16;5073034;28;20044;-63
2023/01/28 07:00:51;;;;;;;14.50;12.27;;;4.40;99.90;;;4.90;73.68;102916.31;5073010;28;20140;-63
2023/01/28 07:03:19;;;;;;;12.87;11.67;;;4.60;99.90;;;5.20;73.15;102915.28;5071190;28;20393;-68
2023/01/28 07:05:49;;;;;;;14.77;12.33;;;4.80;99.90;;;5.38;72.57;102921.44;5072355;28;20161;-68
2023/01/28 07:08:17;;;;;;;13.73;12.30;;;5.10;99.90;;;5.53;72.15;102920.44;5073205;28;20090;-69
2023/01/28 07:10:46;;;;;;;13.60;12.13;;;5.30;99.90;;;5.64;71.93;102920.97;5073133;28;20077;-69
2023/01/28 07:13:14;;;;;;;13.53;12.17;;;5.40;99.90;;;5.70;71.71;102931.78;5072178;28;20612;-68
2023/01/28 07:15:43;;;;;;;13.48;12.02;;;5.50;99.90;;;5.85;71.51;102926.38;5072040;28;20079;-69
2023/01/28 07:18:11;;;;;;;13.87;12.33;;;5.60;99.90;;;5.90;71.24;102917.00;5073026;28;20037;-69
2023/01/28 07:20:39;;;;;;;13.87;12.57;;;5.70;99.90;;;5.95;70.68;102942.66;5073295;28;20062;-69
2023/01/28 07:23:09;;;;;;;13.45;12.23;;;5.70;99.90;;;5.94;70.12;102940.84;5073266;28;20401;-68
2023/01/28 07:25:38;;;;;;;13.23;11.93;;;5.70;99.90;;;5.82;69.72;102903.50;5073338;28;20123;-68
2023/01/28 07:28:06;;;;;;;12.97;11.57;;;5.80;99.90;;;6.01;69.41;102927.19;5073550;28;20352;-69
2023/01/28 07:30:34;;;;;;;13.20;11.73;;;5.80;99.90;;;6.02;69.68;102934.22;5072947;28;20056;-68
2023/01/28 07:33:03;;;;;;;14.60;13.10;;;5.80;99.90;;;6.03;69.27;102936.03;5073178;28;20037;-68
2023/01/28 07:35:32;;;;;;;19.40;15.50;;;5.80;99.90;;;6.00;69.45;102938.50;5071833;28;20695;-68
2023/01/28 07:38:01;;;;;;;16.05;14.35;;;5.80;99.90;;;5.99;69.18;102923.59;5073108;28;20450;-68
2023/01/28 07:40:31;;;;;;;14.63;13.13;;;5.80;99.90;;;6.02;68.83;102931.59;5073024;28;20040;-68
2023/01/28 07:42:59;;;;;;;14.55;12.98;;;5.80;99.90;;;6.00;68.64;102941.13;5073286;28;20049;-69
2023/01/28 07:45:36;;;;;;;14.60;12.63;;;5.70;99.90;;;5.85;68.63;102943.03;5071822;28;20139;-69
2023/01/28 07:48:06;;;;;;;14.20;12.53;;;5.60;99.90;;;5.81;68.61;102933.19;5072722;28;20119;-68
2023/01/28 07:50:38;;;;;;;13.20;11.90;;;5.50;99.90;;;5.76;68.90;102939.03;5072490;28;20067;-68
2023/01/28 07:53:11;;;;;;;14.77;12.88;;;5.50;99.90;;;5.89;69.31;102938.84;5071429;28;20044;-69
2023/01/28 07:55:41;;;;;;;14.63;12.98;;;5.60;99.90;;;5.86;68.81;102930.81;5072810;28;20561;-67
2023/01/28 07:58:12;;;;;;;13.75;12.45;;;5.70;99.90;;;5.99;68.53;102944.59;5071570;28;20517;-69
2023/01/28 08:00:40;;;;;;;14.45;12.95;;;5.80;99.90;;;6.05;68.15;102934.38;5071581;28;20465;-69
2023/01/28 08:03:15;;;;;;;15.25;13.02;;;5.90;99.90;;;6.39;68.75;102950.88;5071547;28;20479;-69
2023/01/28 08:05:46;;;;;;;17.15;13.27;;;6.10;99.90;;;6.68;68.58;102946.06;5072557;28;20044;-69
2023/01/28 08:08:15;;;;;;;14.07;12.77;;;6.40;99.90;;;6.91;67.92;102922.53;5071647;28;20079;-70
2023/01/28 08:10:46;;;;;;;13.73;12.23;;;6.80;99.90;;;7.48;67.05;102974.13;5072875;28;20056;-70
2023/01/28 08:13:16;;;;;;;13.82;12.35;;;7.20;99.90;;;7.88;65.47;102966.09;5073113;28;20041;-69
2023/01/28 08:15:46;;;;;;;13.05;11.85;;;7.60;99.90;;;8.17;63.61;102971.69;5074743;28;20044;-70
2023/01/28 08:18:16;;;;;;;13.68;12.23;;;7.90;99.90;;;8.12;62.54;102969.72;5076294;28;20048;-71
2023/01/28 08:20:46;;;;;;;12.70;11.40;;;8.00;99.90;;;7.94;61.84;102945.28;5076213;28;20573;-68
2023/01/28 08:23:17;;;;;;;12.23;10.98;;;8.00;99.90;;;8.12;61.86;102975.00;5076371;28;20044;-69
2023/01/28 08:25:47;;;;;;;12.18;10.95;;;8.00;99.90;;;8.10;61.48;102979.31;5076719;28;20045;-70
2023/01/28 08:28:17;;;;;;;14.05;11.45;;;7.90;99.90;;;7.44;61.68;102898.47;5076103;28;20037;-69
2023/01/28 08:30:46;;;;;;;12.07;10.60;;;7.70;99.90;;;7.16;62.38;102877.13;5075706;28;20071;-68
2023/01/28 08:33:17;;;;;;;12.20;11.00;;;7.60;99.90;;;7.79;63.07;102990.38;5075975;28;20066;-69
2023/01/28 08:35:46;;;;;;;12.65;11.35;;;7.60;99.90;;;7.71;63.33;102998.78;5076499;28;20064;-69
2023/01/28 08:38:16;;;;;;;12.68;11.38;;;7.50;99.90;;;7.69;62.93;102996.09;5075711;28;20469;-69
2023/01/28 08:40:46;;;;;;;13.05;11.75;;;7.50;99.90;;;7.76;63.35;103008.66;5076040;28;20037;-68
2023/01/28 08:43:14;;;;;;;13.65;12.23;;;7.50;99.90;;;7.74;63.31;103004.19;5075071;28;20045;-65
2023/01/28 08:45:43;;;;;;;12.95;11.65;;;7.50;99.90;;;7.57;62.78;102997.31;5075961;28;20047;-68
2023/01/28 08:48:15;;;;;;;12.80;11.50;;;7.30;99.90;;;7.35;63.36;103000.78;5074830;28;20135;-68
2023/01/28 08:50:45;;;;;;;12.93;11.60;;;7.10;99.90;;;7.35;63.45;103011.31;5075916;28;20049;-68
2023/01/28 08:53:15;;;;;;;12.82;11.52;;;7.00;99.90;;;7.22;63.85;103012.50;5076197;28;20036;-67
2023/01/28 08:55:46;;;;;;;;;;;6.90;99.90;;;7.08;64.15;103013.63;5074899;28;20102;-69
2023/01/28 08:58:16;;;;;;;13.30;11.90;;;6.90;99.90;;;6.61;64.22;103007.06;5075696;28;19921;-69
2023/01/28 09:00:46;;;;;;;12.85;11.55;;;6.40;99.90;;;6.69;65.11;103003.06;5074976;28;20041;-68
2023/01/28 09:03:15;;;;;;;14.23;11.88;;;6.40;99.90;;;6.66;65.27;103013.44;5074369;28;20049;-68
2023/01/28 09:05:43;;;;;;;17.45;13.02;;;6.50;99.90;;;6.68;65.90;103015.28;5075620;28;20050;-69
2023/01/28 09:08:15;;;;;;;14.95;13.30;;;6.50;99.90;;;6.79;66.80;102998.31;5075201;28;20068;-68
2023/01/28 09:10:44;;;;;;;15.45;13.85;;;6.60;99.90;;;7.26;66.76;103026.69;5075585;28;20048;-67
2023/01/28 09:13:15;;;;;;;13.93;12.52;;;6.90;99.90;;;7.51;65.90;103015.50;5075189;28;20051;-69
2023/01/28 09:15:44;;;;;;;14.30;12.38;;;7.30;99.90;;;7.06;66.10;103015.31;5075124;28;20490;-68
2023/01/28 09:18:12;;;;;;;13.63;12.30;;;6.90;99.90;;;7.25;67.57;103022.25;5075159;28;20033;-68
2023/01/28 09:20:41;;;;;;;13.82;12.43;;;6.90;99.90;;;7.43;67.88;103019.53;5075573;28;20059;-68
2023/01/28 09:23:10;;;;;;;15.48;12.00;;;7.10;99.90;;;7.75;67.10;103035.84;5074966;28;20566;-68
2023/01/28 09:25:39;;;;;;;14.18;12.23;;;7.50;99.90;;;7.87;64.68;103035.47;5074780;28;20040;-68
2023/01/28 09:28:07;;;;;;;13.90;12.50;;;7.60;99.90;;;7.67;63.43;103045.16;5074043;28;20079;-75
2023/01/28 09:30:38;;;;;;;14.05;12.10;;;7.50;99.90;;;7.30;63.69;103036.50;5073831;28;20049;-67
2023/01/28 09:33:07;;;;;;;13.52;12.07;;;7.10;99.90;;;6.67;64.43;103044.16;5074761;28;20028;-69
2023/01/28 09:35:36;;;;;;;15.65;12.43;;;6.60;99.90;;;6.38;64.49;103048.97;5074987;28;20029;-68
2023/01/28 09:38:05;;;;;;;19.77;12.75;;;6.20;99.90;;;6.66;65.26;103047.63;5074773;28;20448;-68
2023/01/28 09:40:37;;;;;;;15.15;13.57;;;6.40;99.90;;;6.88;64.86;103010.94;5073674;28;20401;-66
2023/01/28 09:43:33;;;;;;;14.23;12.82;;;6.70;99.90;;;6.44;65.02;103034.31;5074702;28;20044;-67
2023/01/28 09:46:06;;;;;;;14.27;12.77;;;6.40;99.90;;;6.00;66.02;103051.47;5074946;28;20032;-67
2023/01/28 09:48:40;;;;;;;15.25;13.65;;;5.90;99.90;;;5.99;66.17;103020.78;5074447;28;20041;-69
2023/01/28 09:51:22;;;;;;;16.42;13.95;;;5.90;99.90;;;6.32;66.04;103051.31;5073444;28;20048;-68
2023/01/28 09:53:55;;;;;;;14.68;13.25;;;6.00;99.90;;;6.68;66.54;103054.75;5074969;28;20040;-69
2023/01/28 09:56:30;;;;;;;16.77;14.43;;;6.30;99.90;;;7.15;64.68;103056.91;5075380;28;20185;-69
2023/01/28 09:59:00;;;;;;;14.68;13.23;;;6.70;99.90;;;7.35;63.85;103056.06;5074401;28;20048;-70
2023/01/28 10:01:43;;;;;;;73.60;15.43;;;7.00;99.90;;;7.89;63.97;103054.88;5074736;28;20086;-71
2023/01/28 10:04:39;;;;;;;13.63;12.23;;;7.50;99.90;;;7.82;62.40;103058.97;5073706;28;20140;-68
2023/01/28 10:07:31;;;;;;;13.57;12.02;;;7.60;99.90;;;8.30;61.51;103061.84;5074242;28;20079;-67
2023/01/28 10:10:06;;;;;;;14.48;12.98;;;8.00;99.90;;;8.87;60.77;103077.28;5073748;28;20106;-72
2023/01/28 10:12:59;;;;;;;13.32;11.95;;;8.50;99.90;;;8.72;59.24;103074.09;5073079;28;20081;-74
2023/01/28 10:15:54;;;;;;;13.60;12.20;;;8.60;99.90;;;9.19;60.38;103065.31;5074116;28;20071;-75
2023/01/28 10:18:36;;;;;;;12.95;11.65;;;8.70;99.90;;;9.59;57.98;103064.13;5073803;28;20055;-75
2023/01/28 10:21:13;;;;;;;12.93;11.70;;;9.30;99.90;;;9.01;57.46;103078.72;5072507;28;20139;-72
2023/01/28 10:23:56;;;;;;;13.90;11.85;;;8.90;99.90;;;9.27;57.70;103058.56;5073896;28;20045;-71
2023/01/28 10:26:27;;;;;;;14.05;11.80;;;9.00;99.90;;;9.79;57.50;103059.53;5073503;28;20063;-78
2023/01/28 10:29:01;;;;;;;12.73;11.52;;;9.40;99.90;;;9.79;56.38;103060.41;5073604;28;20119;-71
2023/01/28 10:31:35;;;;;;;15.90;12.93;;;9.70;99.90;;;9.84;56.67;103042.97;5073788;28;20040;-75
2023/01/28 10:34:05;;;;;;;13.02;11.35;;;9.70;99.90;;;10.03;55.95;103053.31;5072258;28;20078;-71
2023/01/28 10:36:34;;;;;;;13.80;12.32;;;9.90;99.90;;;9.49;56.09;103051.44;5072463;28;20135;-74
2023/01/28 10:39:03;;;;;;;13.52;12.32;;;9.40;99.90;;;9.81;56.27;103058.72;5073471;28;20070;-74
2023/01/28 10:41:32;;;;;;;13.13;11.77;;;9.50;99.90;;;10.12;55.85;103034.25;5072208;28;20460;-71
2023/01/28 10:44:01;;;;;;;14.20;12.10;;;10.00;99.90;;;10.38;54.86;103065.06;5073285;28;20097;-74
2023/01/28 10:46:33;;;;;;;12.32;11.00;;;10.20;99.90;;;10.52;54.60;103057.53;5073338;28;20482;-83
2023/01/28 10:49:13;;;;;;;12.80;11.60;;;10.30;99.90;;;10.67;54.29;103058.91;5073875;28;20121;-77
2023/01/28 10:51:43;;;;;;;12.93;11.63;;;10.50;99.90;;;10.27;54.64;103047.94;5073168;28;20064;-77
2023/01/28 10:54:21;;;;;;;16.60;12.05;;;10.20;99.90;;;10.48;54.68;103039.78;5072158;28;20101;-74
2023/01/28 10:56:55;;;;;;;12.88;11.68;;;10.30;99.90;;;10.44;53.89;103048.47;5072531;28;20148;-74
2023/01/28 10:59:28;;;;;;;13.38;11.50;;;10.30;99.90;;;9.59;54.36;103031.53;5073301;28;20114;-83
2023/01/28 11:02:02;;;;;;;13.15;11.82;;;9.50;99.90;;;9.66;56.33;102964.81;5072071;28;20482;-79
2023/01/28 11:04:34;;;;;;;12.93;11.60;;;9.60;99.90;;;10.13;55.10;103021.91;5073116;28;20094;-83
2023/01/28 11:07:06;;;;;;;12.75;11.45;;;9.90;99.90;;;9.83;54.57;102918.72;5072038;28;20110;-83
2023/01/28 11:09:38;;;;;;;13.05;11.68;;;10.20;99.90;;;10.43;54.30;102967.31;5072772;28;20053;-80
2023/01/28 11:12:20;;;;;;;14.13;11.73;;;10.50;99.90;;;10.80;53.72;102978.13;5073260;28;20048;-82